Time;durP1;ratioP1;P1;durP2;ratioP2;P2;SDS_P1;SDS_P2;PMS_P1;PMS_P2;Temp;Humidity;BMP_temperature;BMP_pressure;BME280_temperature;BME280_humidity;BME280_pressure;Samples;Min_cycle;Max_cycle;Signal;HPM_P1;HPM_P2
2021/05/31 00:00:25;;;;;;;9.03;8.23;;;;;;;;;;5060131;28;20542;-69
2021/05/31 00:02:50;;;;;;;9.40;7.97;;;;;;;;;;5059808;28;20266;-70
2021/05/31 00:05:17;;;;;;;12.57;8.47;;;;;;;;;;5052277;28;20189;-70
2021/05/31 00:07:42;;;;;;;13.30;9.00;;;;;;;;;;5051376;28;20178;-69
2021/05/31 00:10:08;;;;;;;15.33;8.03;;;;;;;;;;5052869;28;20723;-69
2021/05/31 00:12:33;;;;;;;14.50;8.23;;;;;;;;;;5053294;28;20208;-69
2021/05/31 00:14:58;;;;;;;11.97;8.80;;;;;;;;;;5053325;28;20180;-69
2021/05/31 00:17:24;;;;;;;11.13;8.27;;;;;;;;;;5051927;28;20193;-70
2021/05/31 00:19:51;;;;;;;11.13;8.83;;;;;;;;;;5051614;28;22143;-69
2021/05/31 00:22:16;;;;;;;12.13;10.20;;;;;;;;;;5049161;28;20220;-70
2021/05/31 00:24:41;;;;;;;11.20;8.33;;;;;;;;;;5051233;28;20170;-70
2021/05/31 00:27:06;;;;;;;12.90;8.90;;;;;;;;;;5050914;28;20268;-70
2021/05/31 00:29:32;;;;;;;11.87;9.63;;;;;;;;;;5051698;28;20187;-71
2021/05/31 00:31:57;;;;;;;12.73;9.20;;;;;;;;;;5053216;28;20336;-70
2021/05/31 00:34:23;;;;;;;12.87;9.27;;;;;;;;;;5051567;28;20200;-70
2021/05/31 00:36:48;;;;;;;11.70;9.10;;;;;;;;;;5052485;28;20615;-70
2021/05/31 00:39:13;;;;;;;10.30;8.40;;;;;;;;;;5052697;28;20259;-70
2021/05/31 00:41:43;;;;;;;15.93;8.77;;;;;;;;;;5052054;28;20239;-69
2021/05/31 00:44:08;;;;;;;11.03;8.50;;;;;;;;;;5049805;28;20253;-70
2021/05/31 00:46:34;;;;;;;11.30;9.13;;;;;;;;;;5052712;28;20615;-69
2021/05/31 00:48:59;;;;;;;12.67;8.70;;;;;;;;;;5054980;28;20201;-70
2021/05/31 00:51:25;;;;;;;13.60;9.17;;;;;;;;;;5049672;28;21095;-71
2021/05/31 00:53:51;;;;;;;12.87;9.80;;;;;;;;;;5050190;28;20213;-70
2021/05/31 00:56:17;;;;;;;17.30;10.57;;;;;;;;;;5059896;28;20800;-70
2021/05/31 00:58:42;;;;;;;14.97;9.90;;;;;;;;;;5050667;28;20193;-70
2021/05/31 01:01:08;;;;;;;12.17;10.80;;;;;;;;;;5051316;28;20821;-70
2021/05/31 01:03:33;;;;;;;17.60;10.27;;;;;;;;;;5049985;28;20220;-70
2021/05/31 01:06:04;;;;;;;17.57;10.50;;;;;;;;;;5051800;28;20806;-70
2021/05/31 01:08:34;;;;;;;13.93;10.73;;;;;;;;;;5052020;28;20592;-70
2021/05/31 01:11:04;;;;;;;14.30;10.50;;;;;;;;;;5051336;28;20311;-70
2021/05/31 01:13:41;;;;;;;19.30;11.40;;;;;;;;;;5054253;28;20213;-70
2021/05/31 01:16:09;;;;;;;13.20;9.67;;;;;;;;;;5051097;28;20193;-70
2021/05/31 01:18:42;;;;;;;18.63;10.70;;;;;;;;;;5049434;28;20715;-70
2021/05/31 01:21:13;;;;;;;17.50;11.40;;;;;;;;;;5053711;28;20933;-71
2021/05/31 01:23:40;;;;;;;17.97;10.27;;;;;;;;;;5049851;28;20208;-71
2021/05/31 01:26:08;;;;;;;13.13;10.40;;;;;;;;;;5055084;28;20256;-70
2021/05/31 01:28:40;;;;;;;19.23;12.67;;;;;;;;;;5050616;28;20212;-70
2021/05/31 01:31:06;;;;;;;12.97;10.53;;;;;;;;;;5050941;28;20242;-71
2021/05/31 01:33:33;;;;;;;17.60;10.70;;;;;;;;;;5050924;28;20405;-70
2021/05/31 01:36:00;;;;;;;17.40;11.93;;;;;;;;;;5048159;28;20280;-69
2021/05/31 01:38:26;;;;;;;17.03;11.00;;;;;;;;;;5058330;28;20635;-69
2021/05/31 01:40:51;;;;;;;15.47;10.83;;;;;;;;;;5048681;28;20186;-70
2021/05/31 01:43:17;;;;;;;17.23;10.77;;;;;;;;;;5059685;28;20604;-70
2021/05/31 01:45:43;;;;;;;15.80;11.20;;;;;;;;;;5048855;28;20215;-69
2021/05/31 01:48:11;;;;;;;16.77;10.77;;;;;;;;;;5052151;28;20612;-69
2021/05/31 01:50:37;;;;;;;15.77;10.90;;;;;;;;;;5056867;28;21595;-70
2021/05/31 01:53:03;;;;;;;18.07;12.17;;;;;;;;;;5052024;28;20588;-69
2021/05/31 01:55:28;;;;;;;16.17;11.27;;;;;;;;;;5051843;28;20232;-69
2021/05/31 01:57:54;;;;;;;15.33;11.07;;;;;;;;;;5052126;28;20216;-69
2021/05/31 02:00:19;;;;;;;16.63;11.77;;;;;;;;;;5055766;28;20192;-70
2021/05/31 02:02:44;;;;;;;15.80;11.57;;;;;;;;;;5055802;28;20302;-70
2021/05/31 02:05:10;;;;;;;27.07;14.50;;;;;;;;;;5049314;28;20188;-69
2021/05/31 02:07:39;;;;;;;19.63;13.53;;;;;;;;;;5052149;28;20652;-69
2021/05/31 02:10:08;;;;;;;20.53;12.63;;;;;;;;;;5048864;28;20532;-70
2021/05/31 02:12:35;;;;;;;15.30;12.13;;;;;;;;;;5047866;28;20223;-69
2021/05/31 02:15:01;;;;;;;18.67;11.93;;;;;;;;;;5048747;28;20279;-69
2021/05/31 02:17:26;;;;;;;18.90;12.33;;;;;;;;;;5048622;28;20280;-72
2021/05/31 02:19:53;;;;;;;15.87;12.60;;;;;;;;;;5047418;28;20432;-69
2021/05/31 02:22:19;;;;;;;20.37;13.67;;;;;;;;;;5055620;28;20979;-70
2021/05/31 02:24:44;;;;;;;14.90;11.83;;;;;;;;;;5053365;28;20216;-69
2021/05/31 02:27:11;;;;;;;17.43;13.33;;;;;;;;;;5052084;28;20217;-69
2021/05/31 02:29:36;;;;;;;21.30;13.13;;;;;;;;;;5053732;28;20197;-70
2021/05/31 02:32:04;;;;;;;15.63;11.97;;;;;;;;;;5056658;28;20567;-70
2021/05/31 02:34:30;;;;;;;19.87;13.43;;;;;;;;;;5052160;28;20181;-70
2021/05/31 02:36:55;;;;;;;19.73;12.43;;;;;;;;;;5062230;28;20305;-70
2021/05/31 02:39:20;;;;;;;18.63;13.33;;;;;;;;;;5053595;28;20619;-70
2021/05/31 02:41:46;;;;;;;20.73;14.13;;;;;;;;;;5062368;28;20185;-69
2021/05/31 02:44:11;;;;;;;21.87;14.50;;;;;;;;;;5055422;28;20716;-70
2021/05/31 02:46:36;;;;;;;17.93;13.80;;;;;;;;;;5055138;28;20181;-70
2021/05/31 02:49:03;;;;;;;19.17;13.33;;;;;;;;;;5052419;28;20191;-70
2021/05/31 02:51:28;;;;;;;22.00;14.77;;;;;;;;;;5053894;28;20176;-70
2021/05/31 02:53:53;;;;;;;21.63;14.07;;;;;;;;;;5053283;28;20211;-70
2021/05/31 02:56:18;;;;;;;23.50;14.27;;;;;;;;;;5063256;28;20273;-69
2021/05/31 02:58:44;;;;;;;20.40;14.40;;;;;;;;;;5051730;28;20193;-70
2021/05/31 03:01:09;;;;;;;24.27;14.73;;;;;;;;;;5056689;28;20226;-70
2021/05/31 03:03:34;;;;;;;26.80;15.57;;;;;;;;;;5054691;28;20333;-70
2021/05/31 03:06:00;;;;;;;23.47;16.07;;;;;;;;;;5060249;28;20567;-70
2021/05/31 03:08:25;;;;;;;19.30;14.40;;;;;;;;;;5052616;28;20184;-70
2021/05/31 03:10:50;;;;;;;23.97;14.40;;;;;;;;;;5059002;28;20271;-70
2021/05/31 03:13:15;;;;;;;23.33;14.30;;;;;;;;;;5056281;28;20228;-70
2021/05/31 03:15:41;;;;;;;21.27;14.53;;;;;;;;;;5052159;28;20205;-70
2021/05/31 03:18:07;;;;;;;22.83;15.53;;;;;;;;;;5053843;28;20177;-69
2021/05/31 03:20:32;;;;;;;27.20;15.97;;;;;;;;;;5055707;28;20189;-70
2021/05/31 03:22:57;;;;;;;24.13;17.33;;;;;;;;;;5053558;28;20208;-69
2021/05/31 03:25:23;;;;;;;21.63;15.67;;;;;;;;;;5052371;28;20180;-70
2021/05/31 03:27:48;;;;;;;25.70;15.97;;;;;;;;;;5055298;28;20240;-69
2021/05/31 03:30:14;;;;;;;22.73;15.73;;;;;;;;;;5055394;28;20227;-70
2021/05/31 03:32:40;;;;;;;23.50;15.27;;;;;;;;;;5054885;28;20260;-70
2021/05/31 03:35:06;;;;;;;21.03;14.73;;;;;;;;;;5058604;28;20176;-70
2021/05/31 03:37:31;;;;;;;19.47;14.30;;;;;;;;;;5061691;28;20713;-70
2021/05/31 03:39:57;;;;;;;32.50;17.43;;;;;;;;;;5053544;28;20181;-70
2021/05/31 03:42:22;;;;;;;22.03;15.90;;;;;;;;;;5053408;28;20228;-69
2021/05/31 03:44:47;;;;;;;24.47;16.23;;;;;;;;;;5056400;28;20182;-70
2021/05/31 03:47:12;;;;;;;26.50;15.87;;;;;;;;;;5051816;28;20172;-70
2021/05/31 03:49:37;;;;;;;20.47;15.30;;;;;;;;;;5052689;28;20177;-69
2021/05/31 03:52:03;;;;;;;23.83;16.40;;;;;;;;;;5053270;28;20924;-69
2021/05/31 03:54:28;;;;;;;24.23;18.00;;;;;;;;;;5052789;28;20196;-69
2021/05/31 03:56:55;;;;;;;23.23;16.67;;;;;;;;;;5052330;28;20184;-69
2021/05/31 03:59:20;;;;;;;26.67;17.30;;;;;;;;;;5064953;28;20678;-69
2021/05/31 04:01:46;;;;;;;25.20;18.13;;;;;;;;;;5057681;28;20185;-70
2021/05/31 04:04:12;;;;;;;25.10;16.87;;;;;;;;;;5053710;28;20197;-69
2021/05/31 04:11:55;;;;;;;25.07;17.40;;;;;;;;;;5064189;28;20199;-70
2021/05/31 04:14:20;;;;;;;23.53;15.97;;;;;;;;;;5067454;28;20189;-70
2021/05/31 04:16:53;;;;;;;27.73;17.60;;;;;;;;;;5061164;28;20204;-70
2021/05/31 04:19:20;;;;;;;26.80;16.77;;;;;;;;;;5050631;28;20661;-70
2021/05/31 04:21:50;;;;;;;24.57;16.50;;;;;;;;;;5052131;28;20586;-70
2021/05/31 04:24:16;;;;;;;21.43;15.23;;;;;;;;;;5050390;28;20209;-70
2021/05/31 04:26:41;;;;;;;26.83;16.27;;;;;;;;;;5053515;28;20185;-69
2021/05/31 04:29:07;;;;;;;23.97;15.40;;;;;;;;;;5050336;28;20244;-70
2021/05/31 04:31:33;;;;;;;25.63;15.37;;;;;;;;;;5053068;28;20843;-69
2021/05/31 04:33:59;;;;;;;27.23;15.27;;;;;;;;;;5050377;28;20457;-69
2021/05/31 04:36:24;;;;;;;22.80;17.00;;;;;;;;;;5062659;28;20192;-69
2021/05/31 04:38:50;;;;;;;22.73;16.33;;;;;;;;;;5050026;28;20197;-69
2021/05/31 04:41:15;;;;;;;23.17;15.50;;;;;;;;;;5057026;28;20192;-71
2021/05/31 04:43:40;;;;;;;18.60;13.87;;;;;;;;;;5052071;28;20233;-70
2021/05/31 04:46:05;;;;;;;20.50;14.60;;;;;;;;;;5055336;28;20177;-70
2021/05/31 04:48:31;;;;;;;19.63;14.63;;;;;;;;;;5050764;28;20231;-70
2021/05/31 04:50:56;;;;;;;19.33;13.73;;;;;;;;;;5061539;28;20177;-70
2021/05/31 04:53:25;;;;;;;23.08;14.85;;;;;;;;;;5056422;28;20652;-70
2021/05/31 04:55:50;;;;;;;22.90;14.18;;;;;;;;;;5055391;28;20189;-70
2021/05/31 04:58:16;;;;;;;20.40;14.48;;;;;;;;;;5050200;28;20179;-70
2021/05/31 05:00:41;;;;;;;17.40;14.48;;;;;;;;;;5050576;28;20214;-70
2021/05/31 05:03:06;;;;;;;21.48;12.95;;;;;;;;;;5052604;28;20586;-70
2021/05/31 05:05:31;;;;;;;19.55;13.77;;;;;;;;;;5051751;28;21993;-70
2021/05/31 05:07:56;;;;;;;20.52;13.68;;;;;;;;;;5063730;28;20169;-70
2021/05/31 05:10:22;;;;;;;18.73;13.80;;;;;;;;;;5052724;28;20185;-69
2021/05/31 05:12:48;;;;;;;19.58;13.75;;;;;;;;;;5051387;28;20216;-69
2021/05/31 05:15:14;;;;;;;17.05;13.55;;;;;;;;;;5054225;28;20532;-71
2021/05/31 05:17:39;;;;;;;19.33;12.47;;;;;;;;;;5057281;28;20187;-69
2021/05/31 05:20:05;;;;;;;19.80;14.38;;;;;;;;;;5053306;28;20176;-71
2021/05/31 05:22:30;;;;;;;18.63;13.48;;;;;;;;;;5052503;28;20283;-72
2021/05/31 05:24:56;;;;;;;23.55;13.80;;;;;;;;;;5048352;28;20184;-72
2021/05/31 05:27:21;;;;;;;22.20;14.40;;;;;;;;;;5050107;28;20561;-71
2021/05/31 05:29:47;;;;;;;17.63;13.63;;;;;;;;;;5055302;28;20181;-71
2021/05/31 05:32:12;;;;;;;17.10;13.13;;;;;;;;;;5054557;28;20757;-71
2021/05/31 05:34:37;;;;;;;17.30;12.25;;;;;;;;;;5050809;28;20375;-69
2021/05/31 05:37:07;;;;;;;18.83;12.50;;;;;;;;;;5051592;28;20471;-69
2021/05/31 05:47:47;;;;;;;16.42;11.80;;;;;;;;;;5051444;28;20326;-70
2021/05/31 05:50:14;;;;;;;18.77;12.98;;;;;;;;;;5053352;28;20185;-70
2021/05/31 05:52:40;;;;;;;17.15;12.20;;;;;;;;;;5052537;28;20244;-70
2021/05/31 05:55:06;;;;;;;16.80;11.98;;;;;;;;;;5049881;28;20185;-70
2021/05/31 05:57:31;;;;;;;18.15;12.20;;;;;;;;;;5050499;28;20188;-69
2021/05/31 05:59:56;;;;;;;17.25;11.75;;;;;;;;;;5051188;28;20582;-70
2021/05/31 06:02:21;;;;;;;16.63;11.55;;;;;;;;;;5052439;28;20288;-70
2021/05/31 06:04:46;;;;;;;17.03;11.60;;;;;;;;;;5050537;28;20733;-69
2021/05/31 06:07:11;;;;;;;16.73;12.20;;;;;;;;;;5056471;28;20506;-69
2021/05/31 06:09:37;;;;;;;16.97;12.27;;;;;;;;;;5056381;28;20553;-70
2021/05/31 06:12:02;;;;;;;18.42;12.07;;;;;;;;;;5049851;28;20510;-70
2021/05/31 06:14:27;;;;;;;14.98;10.73;;;;;;;;;;5050665;28;20204;-70
2021/05/31 06:16:52;;;;;;;16.67;11.13;;;;;;;;;;5051050;28;20230;-70
2021/05/31 06:19:18;;;;;;;14.00;11.75;;;;;;;;;;5049322;28;20441;-70
2021/05/31 06:21:43;;;;;;;16.42;10.07;;;;;;;;;;5059598;28;20180;-70
2021/05/31 06:24:10;;;;;;;15.38;11.00;;;;;;;;;;5051259;28;20194;-70
2021/05/31 06:26:35;;;;;;;11.77;10.27;;;;;;;;;;5055101;28;20188;-71
2021/05/31 06:29:01;;;;;;;14.20;12.00;;;;;;;;;;5046588;28;20204;-71
2021/05/31 06:31:26;;;;;;;13.48;10.43;;;;;;;;;;5051359;28;20768;-72
2021/05/31 06:33:52;;;;;;;13.43;10.87;;;;;;;;;;5051563;28;20573;-71
2021/05/31 06:36:17;;;;;;;13.40;10.88;;;;;;;;;;5051674;28;20433;-70
2021/05/31 06:38:42;;;;;;;16.02;10.45;;;;;;;;;;5051270;28;20216;-70
2021/05/31 06:41:07;;;;;;;14.90;10.60;;;;;;;;;;5057223;28;20182;-69
2021/05/31 06:43:33;;;;;;;12.60;9.68;;;;;;;;;;5055942;28;20464;-69
2021/05/31 06:45:59;;;;;;;15.18;10.50;;;;;;;;;;5059552;28;20649;-71
2021/05/31 06:48:25;;;;;;;12.07;9.40;;;;;;;;;;5048904;28;20223;-70
2021/05/31 06:50:50;;;;;;;12.80;9.93;;;;;;;;;;5053005;28;20678;-71
2021/05/31 06:53:17;;;;;;;13.75;10.38;;;;;;;;;;5050167;28;20192;-71
2021/05/31 06:55:43;;;;;;;14.98;9.90;;;;;;;;;;5051285;28;20227;-70
2021/05/31 06:58:09;;;;;;;16.10;9.48;;;;;;;;;;5053932;28;20181;-70
2021/05/31 07:00:34;;;;;;;13.82;9.27;;;;;;;;;;5057412;28;20192;-71
2021/05/31 07:02:59;;;;;;;15.73;10.23;;;;;;;;;;5052730;28;20782;-70
2021/05/31 07:05:24;;;;;;;11.30;8.93;;;;;;;;;;5051307;28;20181;-70
2021/05/31 07:07:50;;;;;;;13.90;9.43;;;;;;;;;;5055082;28;20188;-70
2021/05/31 07:10:17;;;;;;;11.30;9.57;;;;;;;;;;5056173;28;20375;-71
2021/05/31 07:12:42;;;;;;;13.13;8.82;;;;;;;;;;5061630;28;20634;-69
2021/05/31 07:15:11;;;;;;;10.38;8.52;;;;;;;;;;5057316;28;20184;-71
2021/05/31 07:17:36;;;;;;;13.93;9.57;;;;;;;;;;5073866;28;20203;-72
2021/05/31 07:20:03;;;;;;;10.02;7.85;;;;;;;;;;5062024;28;20184;-71
2021/05/31 07:22:29;;;;;;;10.98;8.65;;;;;;;;;;5055623;28;20237;-71
2021/05/31 07:24:54;;;;;;;11.77;8.43;;;;;;;;;;5053642;28;20280;-72
2021/05/31 07:27:20;;;;;;;13.25;9.05;;;;;;;;;;5054355;28;20558;-71
2021/05/31 07:29:45;;;;;;;11.88;8.73;;;;;;;;;;5052664;28;20184;-70
2021/05/31 07:32:10;;;;;;;10.93;8.73;;;;;;;;;;5053652;28;20173;-70
2021/05/31 07:34:35;;;;;;;12.93;8.20;;;;;;;;;;5055075;28;20172;-70
2021/05/31 07:37:01;;;;;;;11.15;9.13;;;;;;;;;;5058095;28;20566;-70
2021/05/31 07:39:26;;;;;;;12.02;8.07;;;;;;;;;;5051611;28;20909;-70
2021/05/31 07:41:51;;;;;;;8.68;7.70;;;;;;;;;;5060578;28;20176;-69
2021/05/31 07:44:16;;;;;;;12.70;7.88;;;;;;;;;;5051953;28;20223;-68
2021/05/31 07:46:42;;;;;;;14.43;9.38;;;;;;;;;;5058267;28;20196;-72
2021/05/31 07:49:07;;;;;;;8.85;7.25;;;;;;;;;;5052221;28;20617;-68
2021/05/31 07:51:32;;;;;;;7.95;7.15;;;;;;;;;;5055013;28;20257;-69
2021/05/31 07:53:58;;;;;;;10.65;7.30;;;;;;;;;;5061533;28;20196;-70
2021/05/31 07:56:27;;;;;;;9.57;8.27;;;;;;;;;;5055472;28;20204;-69
2021/05/31 07:58:53;;;;;;;10.95;7.38;;;;;;;;;;5056419;28;20184;-70
2021/05/31 08:01:19;;;;;;;7.93;7.07;;;;;;;;;;5049674;28;20239;-70
2021/05/31 08:03:46;;;;;;;12.50;8.05;;;;;;;;;;5051354;28;20299;-69
2021/05/31 08:06:12;;;;;;;11.75;7.95;;;;;;;;;;5051821;28;20177;-70
2021/05/31 08:08:37;;;;;;;8.27;7.07;;;;;;;;;;5053066;28;20185;-69
2021/05/31 08:11:03;;;;;;;9.52;6.72;;;;;;;;;;5054252;28;20176;-70
2021/05/31 08:13:28;;;;;;;9.50;6.97;;;;;;;;;;5050364;28;20201;-70
2021/05/31 08:15:53;;;;;;;8.40;6.47;;;;;;;;;;5057569;28;20312;-69
2021/05/31 08:18:19;;;;;;;7.85;6.05;;;;;;;;;;5050473;28;20184;-70
2021/05/31 08:20:45;;;;;;;10.35;5.97;;;;;;;;;;5055136;28;20189;-70
2021/05/31 08:23:10;;;;;;;9.80;6.13;;;;;;;;;;5053610;28;20915;-69
2021/05/31 08:25:35;;;;;;;6.35;5.57;;;;;;;;;;5057957;28;20173;-70
2021/05/31 08:28:03;;;;;;;7.95;5.88;;;;;;;;;;5054845;28;20182;-70
2021/05/31 08:30:28;;;;;;;8.68;6.22;;;;;;;;;;5053258;28;20177;-70
2021/05/31 08:32:53;;;;;;;7.43;6.05;;;;;;;;;;5052856;28;20756;-70
2021/05/31 08:35:19;;;;;;;8.00;6.83;;;;;;;;;;5053834;28;20198;-69
2021/05/31 08:37:44;;;;;;;6.72;5.25;;;;;;;;;;5052697;28;21303;-69
2021/05/31 08:40:09;;;;;;;8.68;5.20;;;;;;;;;;5052370;28;20227;-71
2021/05/31 08:42:35;;;;;;;6.88;5.82;;;;;;;;;;5053725;28;20221;-70
2021/05/31 08:45:01;;;;;;;8.32;5.65;;;;;;;;;;5057668;28;20185;-71
2021/05/31 08:47:27;;;;;;;8.18;6.07;;;;;;;;;;5050940;28;20224;-70
2021/05/31 08:49:52;;;;;;;5.82;5.05;;;;;;;;;;5053910;28;20204;-70
2021/05/31 08:52:17;;;;;;;8.52;5.95;;;;;;;;;;5055251;28;20189;-70
2021/05/31 08:54:43;;;;;;;7.53;5.77;;;;;;;;;;5055552;28;20574;-70
2021/05/31 08:57:08;;;;;;;8.00;4.83;;;;;;;;;;5055161;28;20915;-71
2021/05/31 08:59:33;;;;;;;6.45;4.40;;;;;;;;;;5056724;28;20430;-70
2021/05/31 09:01:58;;;;;;;6.32;4.70;;;;;;;;;;5055020;28;20220;-69
2021/05/31 09:04:24;;;;;;;6.18;4.88;;;;;;;;;;5051143;28;20280;-70
2021/05/31 09:06:53;;;;;;;7.10;5.32;;;;;;;;;;5053676;28;20185;-70
2021/05/31 09:09:19;;;;;;;9.73;5.30;;;;;;;;;;5051743;28;20912;-70
2021/05/31 09:11:55;;;;;;;6.45;4.53;;;;;;;;;;5056060;28;20181;-69
2021/05/31 09:14:20;;;;;;;6.80;4.82;;;;;;;;;;5052614;28;20196;-70
2021/05/31 09:16:47;;;;;;;6.68;5.47;;;;;;;;;;5051858;28;20169;-70
2021/05/31 09:19:12;;;;;;;8.07;5.28;;;;;;;;;;5049767;28;20571;-70
2021/05/31 09:21:39;;;;;;;6.75;5.32;;;;;;;;;;5058448;28;20181;-70
2021/05/31 09:24:04;;;;;;;7.35;5.45;;;;;;;;;;5050070;28;20233;-70
2021/05/31 09:26:29;;;;;;;7.95;4.40;;;;;;;;;;5051765;28;20273;-69
2021/05/31 09:28:58;;;;;;;7.88;4.38;;;;;;;;;;5051346;28;20269;-70
2021/05/31 09:31:24;;;;;;;6.75;4.32;;;;;;;;;;5064114;28;20607;-69
2021/05/31 09:34:00;;;;;;;6.05;3.75;;;;;;;;;;5075189;28;20216;-70
2021/05/31 09:36:25;;;;;;;8.27;4.07;;;;;;;;;;5068765;28;20290;-70
2021/05/31 09:38:51;;;;;;;5.13;3.10;;;;;;;;;;5050362;28;20189;-69
2021/05/31 09:41:22;;;;;;;8.13;3.10;;;;;;;;;;5051890;28;20187;-69
2021/05/31 09:43:53;;;;;;;4.43;3.50;;;;;;;;;;5052412;28;20220;-69
2021/05/31 09:46:19;;;;;;;5.63;3.50;;;;;;;;;;5056909;28;20190;-70
2021/05/31 09:48:44;;;;;;;6.30;3.30;;;;;;;;;;5050863;28;20515;-70
2021/05/31 09:51:13;;;;;;;3.50;3.20;;;;;;;;;;5052678;28;20177;-71
2021/05/31 09:53:38;;;;;;;6.80;3.70;;;;;;;;;;5055219;28;20212;-69
2021/05/31 09:56:15;;;;;;;4.72;3.58;;;;;;;;;;5051756;28;20188;-70
2021/05/31 09:58:49;;;;;;;4.45;3.20;;;;;;;;;;5055513;28;20227;-71
2021/05/31 10:01:15;;;;;;;3.90;2.95;;;;;;;;;;5051092;28;20229;-71
2021/05/31 10:03:53;;;;;;;3.55;2.90;;;;;;;;;;5051629;28;20636;-70
2021/05/31 10:06:37;;;;;;;6.65;3.50;;;;;;;;;;5056350;28;20655;-70
2021/05/31 10:09:02;;;;;;;3.22;2.97;;;;;;;;;;5051651;28;20260;-70
2021/05/31 10:11:28;;;;;;;5.82;3.28;;;;;;;;;;5052270;28;20743;-70
2021/05/31 10:13:54;;;;;;;6.18;2.97;;;;;;;;;;5051297;28;20193;-69
2021/05/31 10:16:19;;;;;;;5.22;3.17;;;;;;;;;;5050806;28;20192;-70
2021/05/31 10:18:45;;;;;;;5.43;3.53;;;;;;;;;;5050600;28;20189;-70
2021/05/31 10:21:13;;;;;;;5.35;2.97;;;;;;;;;;5055926;28;20709;-70
2021/05/31 10:23:38;;;;;;;7.22;3.10;;;;;;;;;;5048660;28;20694;-69
2021/05/31 10:26:08;;;;;;;5.53;3.10;;;;;;;;;;5058452;28;20284;-69
2021/05/31 10:28:36;;;;;;;3.20;2.33;;;;;;;;;;5052696;28;20631;-69
2021/05/31 10:31:03;;;;;;;5.60;3.05;;;;;;;;;;5052805;28;20192;-70
2021/05/31 10:33:28;;;;;;;3.78;2.38;;;;;;;;;;5052857;28;20700;-69
2021/05/31 10:35:58;;;;;;;3.65;2.60;;;;;;;;;;5054380;28;20177;-70
2021/05/31 10:38:26;;;;;;;4.85;2.78;;;;;;;;;;5053246;28;20189;-70
2021/05/31 10:40:52;;;;;;;5.20;2.75;;;;;;;;;;5058987;28;20176;-71
2021/05/31 10:43:23;;;;;;;7.25;2.50;;;;;;;;;;5052475;28;20239;-70
2021/05/31 10:45:49;;;;;;;5.38;2.92;;;;;;;;;;5054659;28;20184;-70
2021/05/31 10:48:15;;;;;;;3.90;2.90;;;;;;;;;;5053104;28;20195;-70
2021/05/31 10:50:41;;;;;;;4.80;2.53;;;;;;;;;;5057709;28;20182;-72
2021/05/31 10:53:07;;;;;;;3.47;2.60;;;;;;;;;;5056446;28;20646;-72
2021/05/31 10:55:33;;;;;;;5.45;2.70;;;;;;;;;;5063066;28;20650;-71
2021/05/31 10:57:59;;;;;;;5.40;2.88;;;;;;;;;;5056986;28;20243;-71
2021/05/31 11:00:28;;;;;;;5.18;2.97;;;;;;;;;;5059839;28;20180;-72
2021/05/31 11:03:07;;;;;;;3.65;2.90;;;;;;;;;;5060386;28;20201;-70
2021/05/31 11:05:34;;;;;;;3.67;2.63;;;;;;;;;;5062875;28;20180;-70
2021/05/31 11:07:59;;;;;;;5.13;3.03;;;;;;;;;;5058973;28;20184;-72
2021/05/31 11:10:28;;;;;;;5.80;2.97;;;;;;;;;;5061737;28;20524;-71
2021/05/31 11:12:53;;;;;;;3.17;2.33;;;;;;;;;;5065959;28;20204;-73
2021/05/31 11:15:20;;;;;;;3.25;2.55;;;;;;;;;;5064147;28;20181;-72
2021/05/31 11:17:47;;;;;;;5.38;2.90;;;;;;;;;;5057109;28;20686;-70
2021/05/31 11:20:12;;;;;;;5.03;2.83;;;;;;;;;;5057685;28;20208;-70
2021/05/31 11:22:37;;;;;;;3.70;2.88;;;;;;;;;;5052709;28;21777;-71
2021/05/31 11:25:07;;;;;;;4.63;3.47;;;;;;;;;;5053760;28;20177;-71
2021/05/31 11:27:34;;;;;;;4.22;3.28;;;;;;;;;;5055234;28;20180;-70
2021/05/31 11:30:01;;;;;;;4.47;2.92;;;;;;;;;;5053775;28;20180;-70
2021/05/31 11:32:27;;;;;;;7.28;4.20;;;;;;;;;;5052153;28;20513;-69
2021/05/31 11:34:56;;;;;;;5.68;4.30;;;;;;;;;;5053750;28;20235;-70
2021/05/31 11:37:22;;;;;;;5.18;3.30;;;;;;;;;;5056635;28;20221;-71
2021/05/31 11:39:48;;;;;;;6.75;3.22;;;;;;;;;;5054661;28;20188;-71
2021/05/31 11:42:13;;;;;;;3.90;3.28;;;;;;;;;;5055011;28;20256;-72
2021/05/31 11:44:39;;;;;;;7.57;4.40;;;;;;;;;;5054299;28;20901;-70
2021/05/31 11:47:04;;;;;;;5.78;3.92;;;;;;;;;;5051754;28;20392;-70
2021/05/31 11:49:30;;;;;;;4.53;3.60;;;;;;;;;;5052756;28;20187;-69
2021/05/31 11:51:59;;;;;;;6.05;4.68;;;;;;;;;;5054351;28;20176;-72
2021/05/31 11:54:25;;;;;;;5.15;3.80;;;;;;;;;;5051938;28;20258;-71
2021/05/31 11:56:51;;;;;;;4.47;3.28;;;;;;;;;;5058116;28;20173;-71
2021/05/31 11:59:16;;;;;;;4.85;3.92;;;;;;;;;;5052898;28;20181;-70
2021/05/31 12:01:48;;;;;;;5.75;4.25;;;;;;;;;;5056515;28;20190;-71
2021/05/31 12:04:14;;;;;;;7.15;4.50;;;;;;;;;;5052321;28;20702;-72
2021/05/31 12:06:39;;;;;;;6.75;4.28;;;;;;;;;;5056641;28;20182;-71
2021/05/31 12:09:14;;;;;;;6.23;3.93;;;;;;;;;;5054797;28;20586;-71
2021/05/31 12:11:39;;;;;;;5.82;3.78;;;;;;;;;;5051758;28;20494;-71
2021/05/31 12:14:04;;;;;;;5.78;3.78;;;;;;;;;;5051070;28;20208;-71
2021/05/31 12:16:29;;;;;;;5.93;4.27;;;;;;;;;;5055473;28;20556;-70
2021/05/31 12:18:55;;;;;;;5.13;4.17;;;;;;;;;;5055486;28;20189;-70
2021/05/31 12:21:20;;;;;;;6.10;3.53;;;;;;;;;;5053400;28;20946;-72
2021/05/31 12:23:49;;;;;;;5.93;4.17;;;;;;;;;;5050860;28;20218;-70
2021/05/31 12:26:16;;;;;;;5.22;3.70;;;;;;;;;;5055917;28;20437;-70
2021/05/31 12:28:41;;;;;;;5.65;3.92;;;;;;;;;;5051349;28;20177;-72
2021/05/31 12:31:06;;;;;;;5.10;3.33;;;;;;;;;;5054747;28;20646;-72
2021/05/31 12:33:31;;;;;;;5.45;3.25;;;;;;;;;;5053352;28;20485;-70
2021/05/31 12:35:57;;;;;;;3.77;3.40;;;;;;;;;;5050910;28;21328;-70
2021/05/31 12:38:22;;;;;;;3.43;3.03;;;;;;;;;;5052461;28;20188;-70
2021/05/31 12:40:48;;;;;;;3.88;3.17;;;;;;;;;;5057612;28;20434;-71
2021/05/31 12:43:14;;;;;;;5.05;3.63;;;;;;;;;;5050655;28;20216;-71
2021/05/31 12:45:43;;;;;;;4.78;3.00;;;;;;;;;;5050832;28;20668;-71
2021/05/31 12:48:12;;;;;;;4.05;3.53;;;;;;;;;;5054290;28;20498;-72
2021/05/31 12:50:37;;;;;;;3.85;3.05;;;;;;;;;;5054762;28;20306;-72
2021/05/31 12:53:06;;;;;;;4.22;3.08;;;;;;;;;;5053435;28;20996;-72
2021/05/31 12:55:33;;;;;;;5.13;3.13;;;;;;;;;;5053299;28;20676;-71
2021/05/31 12:57:58;;;;;;;6.03;3.40;;;;;;;;;;5055171;28;20188;-72
2021/05/31 13:00:25;;;;;;;3.50;3.10;;;;;;;;;;5053177;28;20180;-71
2021/05/31 13:02:58;;;;;;;3.70;3.17;;;;;;;;;;5051270;28;20603;-71
2021/05/31 13:05:24;;;;;;;3.10;2.80;;;;;;;;;;5053574;28;20177;-71
2021/05/31 13:07:52;;;;;;;3.80;2.60;;;;;;;;;;5053333;28;20564;-71
2021/05/31 13:10:20;;;;;;;4.53;2.90;;;;;;;;;;5052802;28;20622;-72
2021/05/31 13:12:48;;;;;;;4.53;3.20;;;;;;;;;;5059105;28;20686;-73
2021/05/31 13:15:13;;;;;;;5.75;2.90;;;;;;;;;;5051771;28;21366;-72
2021/05/31 13:17:39;;;;;;;5.22;3.10;;;;;;;;;;5051832;28;20269;-72
2021/05/31 13:20:05;;;;;;;3.70;3.20;;;;;;;;;;5057219;28;20538;-71
2021/05/31 13:22:30;;;;;;;4.00;3.50;;;;;;;;;;5050011;28;20210;-71
2021/05/31 13:24:55;;;;;;;3.73;3.30;;;;;;;;;;5053418;28;20189;-72
2021/05/31 13:27:26;;;;;;;3.90;3.50;;;;;;;;;;5058741;28;20664;-71
2021/05/31 13:29:55;;;;;;;4.60;3.20;;;;;;;;;;5049311;28;20178;-72
2021/05/31 13:32:21;;;;;;;3.30;3.00;;;;;;;;;;5052566;28;20967;-72
2021/05/31 13:34:46;;;;;;;5.73;2.80;;;;;;;;;;5050664;28;20181;-71
2021/05/31 13:37:11;;;;;;;3.90;2.97;;;;;;;;;;5050308;28;20461;-70
2021/05/31 13:39:37;;;;;;;4.63;3.38;;;;;;;;;;5051202;28;20265;-70
2021/05/31 13:42:02;;;;;;;3.97;3.58;;;;;;;;;;5053257;28;20184;-70
2021/05/31 13:44:28;;;;;;;7.28;4.03;;;;;;;;;;5054385;28;20217;-71
2021/05/31 13:46:54;;;;;;;3.77;3.40;;;;;;;;;;5054258;28;20192;-70
2021/05/31 13:49:19;;;;;;;4.35;3.20;;;;;;;;;;5049977;28;20524;-70
2021/05/31 13:51:46;;;;;;;5.67;3.60;;;;;;;;;;5046768;28;20259;-69
2021/05/31 13:54:11;;;;;;;3.38;3.10;;;;;;;;;;5050177;28;20582;-70
2021/05/31 13:56:37;;;;;;;3.28;2.95;;;;;;;;;;5057175;28;20182;-70
2021/05/31 13:59:03;;;;;;;5.32;3.38;;;;;;;;;;5056042;28;20553;-71
2021/05/31 14:01:28;;;;;;;4.00;3.50;;;;;;;;;;5053411;28;20192;-70
2021/05/31 14:03:53;;;;;;;5.70;3.33;;;;;;;;;;5054261;28;20208;-71
2021/05/31 14:06:19;;;;;;;3.90;3.10;;;;;;;;;;5048976;28;20254;-71
2021/05/31 14:08:44;;;;;;;3.27;2.97;;;;;;;;;;5050180;28;20185;-70
2021/05/31 14:11:09;;;;;;;3.53;3.20;;;;;;;;;;5053372;28;20173;-71
2021/05/31 14:13:34;;;;;;;4.30;3.10;;;;;;;;;;5050022;28;20219;-71
2021/05/31 14:15:59;;;;;;;5.00;3.17;;;;;;;;;;5051359;28;20184;-71
2021/05/31 14:18:24;;;;;;;3.58;3.28;;;;;;;;;;5049592;28;20191;-70
2021/05/31 14:20:50;;;;;;;3.23;3.00;;;;;;;;;;5059677;28;20603;-70
2021/05/31 14:23:15;;;;;;;5.53;3.45;;;;;;;;;;5049680;28;20549;-71
2021/05/31 14:25:40;;;;;;;2.90;2.60;;;;;;;;;;5051053;28;20185;-71
2021/05/31 14:28:05;;;;;;;3.80;2.60;;;;;;;;;;5049342;28;20200;-70
2021/05/31 14:30:31;;;;;;;3.78;2.83;;;;;;;;;;5053294;28;20181;-70
2021/05/31 14:32:59;;;;;;;3.55;3.25;;;;;;;;;;5051358;28;20214;-70
2021/05/31 14:35:24;;;;;;;3.03;2.72;;;;;;;;;;5047848;28;20177;-71
2021/05/31 14:37:50;;;;;;;4.40;2.90;;;;;;;;;;5049580;28;20206;-70